sensor_id;sensor_type;location;lat;lon;timestamp;P1;durP1;ratioP1;P2;durP2;ratioP2
49828;SDS011;35723;51.194;5.112;2024-01-15T00:00:03;42.15;;;17.48;;
49828;SDS011;35723;51.194;5.112;2024-01-15T00:02:29;42.78;;;16.52;;
49828;SDS011;35723;51.194;5.112;2024-01-15T00:04:55;39.20;;;15.65;;
49828;SDS011;35723;51.194;5.112;2024-01-15T00:07:21;42.95;;;16.38;;
49828;SDS011;35723;51.194;5.112;2024-01-15T00:09:46;44.60;;;17.25;;
49828;SDS011;35723;51.194;5.112;2024-01-15T00:12:12;41.60;;;15.52;;
49828;SDS011;35723;51.194;5.112;2024-01-15T00:14:38;41.30;;;15.55;;
49828;SDS011;35723;51.194;5.112;2024-01-15T00:17:03;35.95;;;15.02;;
49828;SDS011;35723;51.194;5.112;2024-01-15T00:19:29;41.65;;;15.80;;
49828;SDS011;35723;51.194;5.112;2024-01-15T00:21:57;39.50;;;15.45;;
49828;SDS011;35723;51.194;5.112;2024-01-15T00:24:22;38.30;;;16.05;;
49828;SDS011;35723;51.194;5.112;2024-01-15T00:26:48;39.20;;;16.00;;
49828;SDS011;35723;51.194;5.112;2024-01-15T00:29:14;40.55;;;15.90;;
49828;SDS011;35723;51.194;5.112;2024-01-15T00:31:39;40.42;;;15.15;;
49828;SDS011;35723;51.194;5.112;2024-01-15T00:34:05;40.00;;;14.38;;
49828;SDS011;35723;51.194;5.112;2024-01-15T00:36:31;36.35;;;13.18;;
49828;SDS011;35723;51.194;5.112;2024-01-15T00:38:56;34.28;;;13.75;;
49828;SDS011;35723;51.194;5.112;2024-01-15T00:41:22;35.78;;;14.23;;
49828;SDS011;35723;51.194;5.112;2024-01-15T00:43:48;35.03;;;14.32;;
49828;SDS011;35723;51.194;5.112;2024-01-15T00:46:16;32.63;;;13.40;;
49828;SDS011;35723;51.194;5.112;2024-01-15T00:48:42;33.95;;;13.65;;
49828;SDS011;35723;51.194;5.112;2024-01-15T00:51:08;34.28;;;13.20;;
49828;SDS011;35723;51.194;5.112;2024-01-15T00:53:33;33.58;;;13.73;;
49828;SDS011;35723;51.194;5.112;2024-01-15T00:55:59;35.88;;;14.27;;
49828;SDS011;35723;51.194;5.112;2024-01-15T00:58:25;36.38;;;14.23;;
49828;SDS011;35723;51.194;5.112;2024-01-15T01:00:51;36.85;;;14.32;;
49828;SDS011;35723;51.194;5.112;2024-01-15T01:03:17;36.25;;;15.52;;
49828;SDS011;35723;51.194;5.112;2024-01-15T01:05:43;34.97;;;14.68;;
49828;SDS011;35723;51.194;5.112;2024-01-15T01:08:09;35.17;;;14.45;;
49828;SDS011;35723;51.194;5.112;2024-01-15T01:10:35;39.28;;;15.48;;
49828;SDS011;35723;51.194;5.112;2024-01-15T01:13:01;37.10;;;15.13;;
49828;SDS011;35723;51.194;5.112;2024-01-15T01:15:26;37.10;;;15.55;;
49828;SDS011;35723;51.194;5.112;2024-01-15T01:17:52;35.88;;;15.05;;
49828;SDS011;35723;51.194;5.112;2024-01-15T01:20:18;37.70;;;14.48;;
49828;SDS011;35723;51.194;5.112;2024-01-15T01:22:43;38.85;;;15.30;;
49828;SDS011;35723;51.194;5.112;2024-01-15T01:25:09;37.20;;;16.00;;
49828;SDS011;35723;51.194;5.112;2024-01-15T01:27:35;38.33;;;16.98;;
49828;SDS011;35723;51.194;5.112;2024-01-15T01:30:01;36.70;;;16.17;;
49828;SDS011;35723;51.194;5.112;2024-01-15T01:32:27;41.33;;;16.38;;
49828;SDS011;35723;51.194;5.112;2024-01-15T01:34:52;36.80;;;15.85;;
49828;SDS011;35723;51.194;5.112;2024-01-15T01:37:18;37.30;;;15.55;;
49828;SDS011;35723;51.194;5.112;2024-01-15T01:39:44;37.00;;;15.32;;
49828;SDS011;35723;51.194;5.112;2024-01-15T01:42:10;39.30;;;16.25;;
49828;SDS011;35723;51.194;5.112;2024-01-15T01:44:36;38.50;;;15.57;;
49828;SDS011;35723;51.194;5.112;2024-01-15T01:47:02;39.55;;;15.35;;
49828;SDS011;35723;51.194;5.112;2024-01-15T01:49:30;35.17;;;15.02;;
49828;SDS011;35723;51.194;5.112;2024-01-15T01:51:56;36.20;;;14.77;;
49828;SDS011;35723;51.194;5.112;2024-01-15T01:54:23;34.63;;;15.25;;
49828;SDS011;35723;51.194;5.112;2024-01-15T01:56:51;35.85;;;15.10;;
49828;SDS011;35723;51.194;5.112;2024-01-15T01:59:19;36.13;;;14.77;;
49828;SDS011;35723;51.194;5.112;2024-01-15T02:01:45;37.70;;;15.60;;
49828;SDS011;35723;51.194;5.112;2024-01-15T02:04:11;35.03;;;14.68;;
49828;SDS011;35723;51.194;5.112;2024-01-15T02:06:37;37.08;;;14.10;;
49828;SDS011;35723;51.194;5.112;2024-01-15T02:09:03;33.33;;;14.40;;
49828;SDS011;35723;51.194;5.112;2024-01-15T02:11:30;36.22;;;14.48;;
49828;SDS011;35723;51.194;5.112;2024-01-15T02:13:56;34.30;;;12.77;;
49828;SDS011;35723;51.194;5.112;2024-01-15T02:16:22;31.73;;;13.38;;
49828;SDS011;35723;51.194;5.112;2024-01-15T02:18:48;31.10;;;12.68;;
49828;SDS011;35723;51.194;5.112;2024-01-15T02:21:13;30.52;;;11.57;;
49828;SDS011;35723;51.194;5.112;2024-01-15T02:23:39;31.58;;;11.65;;
49828;SDS011;35723;51.194;5.112;2024-01-15T02:26:05;26.85;;;10.80;;
49828;SDS011;35723;51.194;5.112;2024-01-15T02:28:32;25.95;;;10.35;;
49828;SDS011;35723;51.194;5.112;2024-01-15T02:30:58;30.77;;;10.18;;
49828;SDS011;35723;51.194;5.112;2024-01-15T02:33:24;25.77;;;10.13;;
49828;SDS011;35723;51.194;5.112;2024-01-15T02:35:50;25.13;;;9.85;;
49828;SDS011;35723;51.194;5.112;2024-01-15T02:38:16;25.17;;;9.25;;
49828;SDS011;35723;51.194;5.112;2024-01-15T02:40:43;28.00;;;10.43;;
49828;SDS011;35723;51.194;5.112;2024-01-15T02:43:09;22.67;;;8.77;;
49828;SDS011;35723;51.194;5.112;2024-01-15T02:45:35;23.73;;;8.55;;
49828;SDS011;35723;51.194;5.112;2024-01-15T02:48:01;22.58;;;8.43;;
49828;SDS011;35723;51.194;5.112;2024-01-15T02:50:27;21.25;;;8.38;;
49828;SDS011;35723;51.194;5.112;2024-01-15T02:52:52;22.30;;;8.63;;
49828;SDS011;35723;51.194;5.112;2024-01-15T02:55:18;23.00;;;8.68;;
49828;SDS011;35723;51.194;5.112;2024-01-15T02:57:44;20.70;;;7.82;;
49828;SDS011;35723;51.194;5.112;2024-01-15T03:00:10;22.30;;;7.53;;
49828;SDS011;35723;51.194;5.112;2024-01-15T03:02:37;21.20;;;6.57;;
49828;SDS011;35723;51.194;5.112;2024-01-15T03:05:05;18.58;;;5.45;;
49828;SDS011;35723;51.194;5.112;2024-01-15T03:07:31;17.60;;;5.88;;
49828;SDS011;35723;51.194;5.112;2024-01-15T03:09:57;13.88;;;5.20;;
49828;SDS011;35723;51.194;5.112;2024-01-15T03:12:23;18.42;;;5.05;;
49828;SDS011;35723;51.194;5.112;2024-01-15T03:14:48;19.52;;;6.72;;
49828;SDS011;35723;51.194;5.112;2024-01-15T03:17:14;23.25;;;8.05;;
49828;SDS011;35723;51.194;5.112;2024-01-15T03:19:39;22.88;;;9.10;;
49828;SDS011;35723;51.194;5.112;2024-01-15T03:22:05;23.52;;;9.40;;
49828;SDS011;35723;51.194;5.112;2024-01-15T03:24:33;21.10;;;9.50;;
49828;SDS011;35723;51.194;5.112;2024-01-15T03:26:59;22.80;;;10.00;;
49828;SDS011;35723;51.194;5.112;2024-01-15T03:29:25;24.80;;;10.75;;
49828;SDS011;35723;51.194;5.112;2024-01-15T03:31:51;24.40;;;10.30;;
49828;SDS011;35723;51.194;5.112;2024-01-15T03:34:17;26.23;;;11.05;;
49828;SDS011;35723;51.194;5.112;2024-01-15T03:36:42;25.15;;;11.15;;
49828;SDS011;35723;51.194;5.112;2024-01-15T03:39:08;25.90;;;10.55;;
49828;SDS011;35723;51.194;5.112;2024-01-15T03:41:34;24.55;;;10.48;;
49828;SDS011;35723;51.194;5.112;2024-01-15T03:44:00;24.60;;;10.80;;
49828;SDS011;35723;51.194;5.112;2024-01-15T03:46:26;25.05;;;11.13;;
49828;SDS011;35723;51.194;5.112;2024-01-15T03:48:52;25.77;;;10.38;;
49828;SDS011;35723;51.194;5.112;2024-01-15T03:51:17;22.50;;;9.93;;
49828;SDS011;35723;51.194;5.112;2024-01-15T03:53:43;25.00;;;10.00;;
49828;SDS011;35723;51.194;5.112;2024-01-15T03:56:09;26.45;;;9.45;;
49828;SDS011;35723;51.194;5.112;2024-01-15T03:58:34;23.80;;;9.57;;
49828;SDS011;35723;51.194;5.112;2024-01-15T04:01:00;25.70;;;10.05;;
49828;SDS011;35723;51.194;5.112;2024-01-15T04:03:26;21.88;;;8.85;;
49828;SDS011;35723;51.194;5.112;2024-01-15T04:05:51;23.15;;;9.35;;
49828;SDS011;35723;51.194;5.112;2024-01-15T04:08:17;23.02;;;8.85;;
49828;SDS011;35723;51.194;5.112;2024-01-15T04:10:42;24.48;;;9.05;;
49828;SDS011;35723;51.194;5.112;2024-01-15T04:13:08;22.10;;;8.57;;
49828;SDS011;35723;51.194;5.112;2024-01-15T04:15:34;25.67;;;8.88;;
49828;SDS011;35723;51.194;5.112;2024-01-15T04:18:01;23.10;;;8.82;;
49828;SDS011;35723;51.194;5.112;2024-01-15T04:20:27;23.23;;;8.57;;
49828;SDS011;35723;51.194;5.112;2024-01-15T04:22:53;25.17;;;8.57;;
49828;SDS011;35723;51.194;5.112;2024-01-15T04:25:18;21.40;;;8.80;;
49828;SDS011;35723;51.194;5.112;2024-01-15T04:27:44;26.98;;;9.77;;
49828;SDS011;35723;51.194;5.112;2024-01-15T04:30:10;27.58;;;9.82;;
49828;SDS011;35723;51.194;5.112;2024-01-15T04:32:36;23.15;;;9.25;;
49828;SDS011;35723;51.194;5.112;2024-01-15T04:35:01;25.98;;;8.90;;
49828;SDS011;35723;51.194;5.112;2024-01-15T04:37:27;23.10;;;8.70;;
49828;SDS011;35723;51.194;5.112;2024-01-15T04:39:53;21.33;;;9.05;;
49828;SDS011;35723;51.194;5.112;2024-01-15T04:42:20;23.25;;;8.13;;
49828;SDS011;35723;51.194;5.112;2024-01-15T04:44:46;22.63;;;9.05;;
49828;SDS011;35723;51.194;5.112;2024-01-15T04:47:12;20.42;;;7.70;;
49828;SDS011;35723;51.194;5.112;2024-01-15T04:49:38;24.25;;;8.00;;
49828;SDS011;35723;51.194;5.112;2024-01-15T04:52:03;23.38;;;8.15;;
49828;SDS011;35723;51.194;5.112;2024-01-15T04:54:29;23.35;;;8.07;;
49828;SDS011;35723;51.194;5.112;2024-01-15T04:56:55;22.77;;;8.02;;
49828;SDS011;35723;51.194;5.112;2024-01-15T04:59:20;21.27;;;7.75;;
49828;SDS011;35723;51.194;5.112;2024-01-15T05:01:46;23.38;;;8.02;;
49828;SDS011;35723;51.194;5.112;2024-01-15T05:04:12;23.58;;;7.75;;
49828;SDS011;35723;51.194;5.112;2024-01-15T05:06:38;20.83;;;7.95;;
49828;SDS011;35723;51.194;5.112;2024-01-15T05:09:03;24.48;;;7.80;;
49828;SDS011;35723;51.194;5.112;2024-01-15T05:11:29;20.90;;;7.45;;
49828;SDS011;35723;51.194;5.112;2024-01-15T05:13:55;20.48;;;7.20;;
49828;SDS011;35723;51.194;5.112;2024-01-15T05:16:20;23.77;;;7.32;;
49828;SDS011;35723;51.194;5.112;2024-01-15T05:18:46;20.30;;;7.05;;
49828;SDS011;35723;51.194;5.112;2024-01-15T05:21:12;23.98;;;6.88;;
49828;SDS011;35723;51.194;5.112;2024-01-15T05:23:37;22.98;;;6.90;;
49828;SDS011;35723;51.194;5.112;2024-01-15T05:26:03;18.80;;;7.00;;
49828;SDS011;35723;51.194;5.112;2024-01-15T05:28:29;16.88;;;6.43;;
49828;SDS011;35723;51.194;5.112;2024-01-15T05:30:55;23.75;;;6.93;;
49828;SDS011;35723;51.194;5.112;2024-01-15T05:33:21;17.73;;;7.10;;
49828;SDS011;35723;51.194;5.112;2024-01-15T05:35:50;19.23;;;6.22;;
49828;SDS011;35723;51.194;5.112;2024-01-15T05:38:16;18.48;;;6.63;;
49828;SDS011;35723;51.194;5.112;2024-01-15T05:40:42;19.10;;;6.68;;
49828;SDS011;35723;51.194;5.112;2024-01-15T05:43:07;18.45;;;6.80;;
49828;SDS011;35723;51.194;5.112;2024-01-15T05:45:34;21.17;;;7.25;;
49828;SDS011;35723;51.194;5.112;2024-01-15T05:48:00;22.15;;;6.57;;
49828;SDS011;35723;51.194;5.112;2024-01-15T05:50:26;21.58;;;6.50;;
49828;SDS011;35723;51.194;5.112;2024-01-15T05:52:52;24.15;;;6.63;;
49828;SDS011;35723;51.194;5.112;2024-01-15T05:55:18;18.27;;;6.90;;
49828;SDS011;35723;51.194;5.112;2024-01-15T05:57:44;22.60;;;7.07;;
49828;SDS011;35723;51.194;5.112;2024-01-15T06:00:10;19.17;;;6.80;;
49828;SDS011;35723;51.194;5.112;2024-01-15T06:02:39;18.27;;;7.20;;
49828;SDS011;35723;51.194;5.112;2024-01-15T06:05:05;20.40;;;7.60;;
49828;SDS011;35723;51.194;5.112;2024-01-15T06:07:31;22.02;;;7.30;;
49828;SDS011;35723;51.194;5.112;2024-01-15T06:09:58;21.00;;;7.30;;
49828;SDS011;35723;51.194;5.112;2024-01-15T06:12:24;20.23;;;6.65;;
49828;SDS011;35723;51.194;5.112;2024-01-15T06:14:50;21.02;;;7.30;;
49828;SDS011;35723;51.194;5.112;2024-01-15T06:17:15;20.50;;;7.38;;
49828;SDS011;35723;51.194;5.112;2024-01-15T06:19:41;19.92;;;6.97;;
49828;SDS011;35723;51.194;5.112;2024-01-15T06:22:07;20.23;;;7.10;;
49828;SDS011;35723;51.194;5.112;2024-01-15T06:24:32;31.58;;;13.40;;
49828;SDS011;35723;51.194;5.112;2024-01-15T06:26:58;29.85;;;12.43;;
49828;SDS011;35723;51.194;5.112;2024-01-15T06:29:25;25.60;;;10.48;;
49828;SDS011;35723;51.194;5.112;2024-01-15T06:31:51;22.00;;;8.10;;
49828;SDS011;35723;51.194;5.112;2024-01-15T06:34:17;22.40;;;7.97;;
49828;SDS011;35723;51.194;5.112;2024-01-15T06:36:43;22.55;;;8.13;;
49828;SDS011;35723;51.194;5.112;2024-01-15T06:39:10;19.55;;;8.00;;
49828;SDS011;35723;51.194;5.112;2024-01-15T06:41:35;21.05;;;8.23;;
49828;SDS011;35723;51.194;5.112;2024-01-15T06:44:08;22.50;;;8.15;;
49828;SDS011;35723;51.194;5.112;2024-01-15T06:46:36;19.55;;;7.72;;
49828;SDS011;35723;51.194;5.112;2024-01-15T06:49:06;21.73;;;7.90;;
49828;SDS011;35723;51.194;5.112;2024-01-15T06:51:32;23.98;;;8.27;;
49828;SDS011;35723;51.194;5.112;2024-01-15T06:53:57;21.30;;;8.43;;
49828;SDS011;35723;51.194;5.112;2024-01-15T06:56:23;24.20;;;8.73;;
49828;SDS011;35723;51.194;5.112;2024-01-15T06:58:49;23.60;;;8.93;;
49828;SDS011;35723;51.194;5.112;2024-01-15T07:01:14;22.25;;;8.35;;
49828;SDS011;35723;51.194;5.112;2024-01-15T07:03:40;25.17;;;8.77;;
49828;SDS011;35723;51.194;5.112;2024-01-15T07:06:06;23.17;;;8.80;;
49828;SDS011;35723;51.194;5.112;2024-01-15T07:08:31;24.50;;;8.13;;
49828;SDS011;35723;51.194;5.112;2024-01-15T07:10:57;23.88;;;8.43;;
49828;SDS011;35723;51.194;5.112;2024-01-15T07:13:23;21.70;;;8.30;;
49828;SDS011;35723;51.194;5.112;2024-01-15T07:15:48;23.08;;;8.32;;
49828;SDS011;35723;51.194;5.112;2024-01-15T07:18:15;20.70;;;8.25;;
49828;SDS011;35723;51.194;5.112;2024-01-15T07:20:41;22.02;;;9.15;;
49828;SDS011;35723;51.194;5.112;2024-01-15T07:23:07;22.52;;;7.72;;
49828;SDS011;35723;51.194;5.112;2024-01-15T07:25:33;19.58;;;7.88;;
49828;SDS011;35723;51.194;5.112;2024-01-15T07:27:58;18.02;;;7.07;;
49828;SDS011;35723;51.194;5.112;2024-01-15T07:30:24;16.33;;;7.35;;
49828;SDS011;35723;51.194;5.112;2024-01-15T07:32:50;16.17;;;6.88;;
49828;SDS011;35723;51.194;5.112;2024-01-15T07:35:17;18.17;;;6.28;;
49828;SDS011;35723;51.194;5.112;2024-01-15T07:37:43;18.63;;;5.88;;
49828;SDS011;35723;51.194;5.112;2024-01-15T07:40:09;15.38;;;5.38;;
49828;SDS011;35723;51.194;5.112;2024-01-15T07:42:35;14.02;;;5.25;;
49828;SDS011;35723;51.194;5.112;2024-01-15T07:45:01;9.30;;;4.22;;
49828;SDS011;35723;51.194;5.112;2024-01-15T07:47:27;9.95;;;3.70;;
49828;SDS011;35723;51.194;5.112;2024-01-15T07:49:53;10.13;;;3.70;;
49828;SDS011;35723;51.194;5.112;2024-01-15T07:52:19;13.32;;;3.67;;
49828;SDS011;35723;51.194;5.112;2024-01-15T07:54:45;8.18;;;3.65;;
49828;SDS011;35723;51.194;5.112;2024-01-15T07:57:11;9.77;;;3.65;;
49828;SDS011;35723;51.194;5.112;2024-01-15T07:59:36;11.18;;;3.40;;
49828;SDS011;35723;51.194;5.112;2024-01-15T08:02:02;7.20;;;3.00;;
49828;SDS011;35723;51.194;5.112;2024-01-15T08:04:28;6.47;;;3.10;;
49828;SDS011;35723;51.194;5.112;2024-01-15T08:06:54;7.10;;;3.05;;
49828;SDS011;35723;51.194;5.112;2024-01-15T08:09:20;6.75;;;3.40;;
49828;SDS011;35723;51.194;5.112;2024-01-15T08:11:45;9.43;;;3.50;;
49828;SDS011;35723;51.194;5.112;2024-01-15T08:14:11;9.48;;;3.25;;
49828;SDS011;35723;51.194;5.112;2024-01-15T08:16:38;7.15;;;3.25;;
49828;SDS011;35723;51.194;5.112;2024-01-15T08:19:04;9.40;;;3.30;;
49828;SDS011;35723;51.194;5.112;2024-01-15T08:21:30;8.75;;;2.95;;
49828;SDS011;35723;51.194;5.112;2024-01-15T08:23:57;10.13;;;2.97;;
49828;SDS011;35723;51.194;5.112;2024-01-15T08:26:23;7.05;;;3.00;;
49828;SDS011;35723;51.194;5.112;2024-01-15T08:28:49;10.27;;;2.83;;
49828;SDS011;35723;51.194;5.112;2024-01-15T08:31:15;9.25;;;3.17;;
49828;SDS011;35723;51.194;5.112;2024-01-15T08:33:41;10.30;;;2.97;;
49828;SDS011;35723;51.194;5.112;2024-01-15T08:36:07;9.85;;;3.33;;
49828;SDS011;35723;51.194;5.112;2024-01-15T08:38:32;6.93;;;3.15;;
49828;SDS011;35723;51.194;5.112;2024-01-15T08:40:58;6.72;;;3.20;;
49828;SDS011;35723;51.194;5.112;2024-01-15T08:43:25;9.57;;;3.53;;
49828;SDS011;35723;51.194;5.112;2024-01-15T08:45:51;10.80;;;3.95;;
49828;SDS011;35723;51.194;5.112;2024-01-15T08:48:17;17.58;;;6.53;;
49828;SDS011;35723;51.194;5.112;2024-01-15T08:50:43;16.45;;;5.97;;
49828;SDS011;35723;51.194;5.112;2024-01-15T08:53:12;16.48;;;6.22;;
49828;SDS011;35723;51.194;5.112;2024-01-15T08:55:38;15.13;;;6.00;;
49828;SDS011;35723;51.194;5.112;2024-01-15T08:58:04;11.90;;;5.10;;
49828;SDS011;35723;51.194;5.112;2024-01-15T09:00:31;11.20;;;4.93;;
49828;SDS011;35723;51.194;5.112;2024-01-15T09:02:57;12.45;;;5.00;;
49828;SDS011;35723;51.194;5.112;2024-01-15T09:05:22;12.85;;;4.88;;
49828;SDS011;35723;51.194;5.112;2024-01-15T09:07:48;15.73;;;5.25;;
49828;SDS011;35723;51.194;5.112;2024-01-15T09:32:24;24.75;;;7.95;;
49828;SDS011;35723;51.194;5.112;2024-01-15T09:34:50;22.25;;;7.85;;
49828;SDS011;35723;51.194;5.112;2024-01-15T09:37:16;22.75;;;8.75;;
49828;SDS011;35723;51.194;5.112;2024-01-15T09:39:42;23.73;;;8.70;;
49828;SDS011;35723;51.194;5.112;2024-01-15T09:42:08;22.42;;;8.32;;
49828;SDS011;35723;51.194;5.112;2024-01-15T09:44:41;27.15;;;8.65;;
49828;SDS011;35723;51.194;5.112;2024-01-15T09:47:07;25.38;;;9.23;;
49828;SDS011;35723;51.194;5.112;2024-01-15T09:49:33;23.90;;;8.13;;
49828;SDS011;35723;51.194;5.112;2024-01-15T09:51:59;21.25;;;7.47;;
49828;SDS011;35723;51.194;5.112;2024-01-15T09:54:27;31.30;;;7.32;;
49828;SDS011;35723;51.194;5.112;2024-01-15T09:56:54;20.35;;;6.85;;
49828;SDS011;35723;51.194;5.112;2024-01-15T09:59:20;22.92;;;6.80;;
49828;SDS011;35723;51.194;5.112;2024-01-15T10:01:50;20.48;;;6.57;;
49828;SDS011;35723;51.194;5.112;2024-01-15T10:04:16;23.17;;;6.78;;
49828;SDS011;35723;51.194;5.112;2024-01-15T10:06:44;22.85;;;5.80;;
49828;SDS011;35723;51.194;5.112;2024-01-15T10:09:12;21.95;;;5.85;;
49828;SDS011;35723;51.194;5.112;2024-01-15T10:11:41;25.58;;;5.45;;
49828;SDS011;35723;51.194;5.112;2024-01-15T10:14:08;28.88;;;5.75;;
49828;SDS011;35723;51.194;5.112;2024-01-15T10:16:41;25.05;;;4.93;;
49828;SDS011;35723;51.194;5.112;2024-01-15T10:19:08;23.77;;;5.47;;
49828;SDS011;35723;51.194;5.112;2024-01-15T10:21:34;22.38;;;5.18;;
49828;SDS011;35723;51.194;5.112;2024-01-15T10:24:01;24.20;;;5.45;;
49828;SDS011;35723;51.194;5.112;2024-01-15T10:26:28;19.40;;;5.05;;
49828;SDS011;35723;51.194;5.112;2024-01-15T10:28:54;22.15;;;5.05;;
49828;SDS011;35723;51.194;5.112;2024-01-15T10:31:20;17.65;;;4.60;;
49828;SDS011;35723;51.194;5.112;2024-01-15T10:33:49;20.88;;;4.80;;
49828;SDS011;35723;51.194;5.112;2024-01-15T10:36:16;22.05;;;4.75;;
49828;SDS011;35723;51.194;5.112;2024-01-15T10:38:46;20.95;;;4.18;;
49828;SDS011;35723;51.194;5.112;2024-01-15T10:41:12;15.13;;;3.53;;
49828;SDS011;35723;51.194;5.112;2024-01-15T10:43:38;15.80;;;4.10;;
49828;SDS011;35723;51.194;5.112;2024-01-15T10:46:07;16.15;;;3.40;;
49828;SDS011;35723;51.194;5.112;2024-01-15T10:48:52;18.13;;;4.13;;
49828;SDS011;35723;51.194;5.112;2024-01-15T10:51:20;18.50;;;4.07;;
49828;SDS011;35723;51.194;5.112;2024-01-15T10:56:14;20.75;;;3.70;;
49828;SDS011;35723;51.194;5.112;2024-01-15T11:21:24;16.35;;;4.55;;
49828;SDS011;35723;51.194;5.112;2024-01-15T11:24:06;20.75;;;5.60;;
49828;SDS011;35723;51.194;5.112;2024-01-15T11:27:19;16.52;;;4.60;;
49828;SDS011;35723;51.194;5.112;2024-01-15T11:30:29;13.25;;;3.25;;
49828;SDS011;35723;51.194;5.112;2024-01-15T11:42:26;7.75;;;1.90;;
49828;SDS011;35723;51.194;5.112;2024-01-15T11:48:42;8.30;;;1.92;;
49828;SDS011;35723;51.194;5.112;2024-01-15T12:04:23;7.00;;;2.00;;
49828;SDS011;35723;51.194;5.112;2024-01-15T12:06:49;7.22;;;1.98;;
49828;SDS011;35723;51.194;5.112;2024-01-15T12:14:38;10.15;;;2.03;;
49828;SDS011;35723;51.194;5.112;2024-01-15T12:19:51;8.65;;;2.33;;
49828;SDS011;35723;51.194;5.112;2024-01-15T12:22:17;9.02;;;2.15;;
49828;SDS011;35723;51.194;5.112;2024-01-15T12:24:45;9.52;;;2.17;;
49828;SDS011;35723;51.194;5.112;2024-01-15T12:27:11;12.85;;;2.20;;
49828;SDS011;35723;51.194;5.112;2024-01-15T12:35:34;5.65;;;1.77;;
49828;SDS011;35723;51.194;5.112;2024-01-15T12:38:02;8.93;;;1.90;;
49828;SDS011;35723;51.194;5.112;2024-01-15T12:40:53;10.00;;;1.98;;
49828;SDS011;35723;51.194;5.112;2024-01-15T12:47:18;3.60;;;1.20;;
49828;SDS011;35723;51.194;5.112;2024-01-15T12:50:51;4.68;;;1.73;;
49828;SDS011;35723;51.194;5.112;2024-01-15T13:03:58;3.22;;;1.77;;
49828;SDS011;35723;51.194;5.112;2024-01-15T13:17:13;6.28;;;2.22;;
49828;SDS011;35723;51.194;5.112;2024-01-15T13:30:31;9.52;;;2.60;;
49828;SDS011;35723;51.194;5.112;2024-01-15T14:04:39;8.63;;;2.30;;
49828;SDS011;35723;51.194;5.112;2024-01-15T14:44:12;7.03;;;1.80;;
49828;SDS011;35723;51.194;5.112;2024-01-15T14:50:12;9.05;;;2.03;;
49828;SDS011;35723;51.194;5.112;2024-01-15T14:52:38;7.07;;;1.92;;
49828;SDS011;35723;51.194;5.112;2024-01-15T14:55:07;10.45;;;2.00;;
49828;SDS011;35723;51.194;5.112;2024-01-15T14:57:34;10.10;;;1.90;;
49828;SDS011;35723;51.194;5.112;2024-01-15T14:59:59;7.85;;;2.30;;
49828;SDS011;35723;51.194;5.112;2024-01-15T15:02:25;7.50;;;1.73;;
49828;SDS011;35723;51.194;5.112;2024-01-15T15:07:30;11.23;;;2.28;;
49828;SDS011;35723;51.194;5.112;2024-01-15T15:09:56;9.10;;;2.20;;
49828;SDS011;35723;51.194;5.112;2024-01-15T15:12:25;8.18;;;1.90;;
49828;SDS011;35723;51.194;5.112;2024-01-15T15:14:59;5.68;;;2.10;;
49828;SDS011;35723;51.194;5.112;2024-01-15T15:17:24;12.93;;;2.38;;
49828;SDS011;35723;51.194;5.112;2024-01-15T15:20:05;8.75;;;2.20;;
49828;SDS011;35723;51.194;5.112;2024-01-15T15:22:32;7.78;;;2.03;;
49828;SDS011;35723;51.194;5.112;2024-01-15T15:24:58;13.20;;;2.35;;
49828;SDS011;35723;51.194;5.112;2024-01-15T15:27:31;7.72;;;1.90;;
49828;SDS011;35723;51.194;5.112;2024-01-15T15:42:55;18.38;;;4.32;;
49828;SDS011;35723;51.194;5.112;2024-01-15T15:45:21;17.38;;;4.65;;
49828;SDS011;35723;51.194;5.112;2024-01-15T15:47:47;14.13;;;3.25;;
49828;SDS011;35723;51.194;5.112;2024-01-15T15:50:13;13.13;;;3.10;;
49828;SDS011;35723;51.194;5.112;2024-01-15T15:52:39;13.15;;;2.72;;
49828;SDS011;35723;51.194;5.112;2024-01-15T15:55:05;15.00;;;3.47;;
49828;SDS011;35723;51.194;5.112;2024-01-15T15:57:32;15.75;;;3.90;;
49828;SDS011;35723;51.194;5.112;2024-01-15T15:59:58;13.95;;;3.85;;
49828;SDS011;35723;51.194;5.112;2024-01-15T16:02:24;13.98;;;3.78;;
49828;SDS011;35723;51.194;5.112;2024-01-15T16:04:49;12.90;;;3.80;;
49828;SDS011;35723;51.194;5.112;2024-01-15T16:07:15;13.80;;;3.60;;
49828;SDS011;35723;51.194;5.112;2024-01-15T16:09:41;15.63;;;3.75;;
49828;SDS011;35723;51.194;5.112;2024-01-15T16:12:07;15.98;;;4.07;;
49828;SDS011;35723;51.194;5.112;2024-01-15T16:14:37;14.30;;;3.72;;
49828;SDS011;35723;51.194;5.112;2024-01-15T16:17:02;14.10;;;4.75;;
49828;SDS011;35723;51.194;5.112;2024-01-15T16:19:28;13.20;;;4.40;;
49828;SDS011;35723;51.194;5.112;2024-01-15T16:21:54;19.02;;;5.75;;
49828;SDS011;35723;51.194;5.112;2024-01-15T16:24:20;21.92;;;5.78;;
49828;SDS011;35723;51.194;5.112;2024-01-15T16:26:48;22.38;;;5.63;;
49828;SDS011;35723;51.194;5.112;2024-01-15T16:29:16;17.70;;;5.63;;
49828;SDS011;35723;51.194;5.112;2024-01-15T16:31:41;22.58;;;7.43;;
49828;SDS011;35723;51.194;5.112;2024-01-15T16:34:08;21.67;;;8.07;;
49828;SDS011;35723;51.194;5.112;2024-01-15T16:36:34;20.52;;;7.25;;
49828;SDS011;35723;51.194;5.112;2024-01-15T16:39:00;17.45;;;6.53;;
49828;SDS011;35723;51.194;5.112;2024-01-15T16:41:25;21.48;;;6.50;;
49828;SDS011;35723;51.194;5.112;2024-01-15T16:43:51;20.02;;;7.05;;
49828;SDS011;35723;51.194;5.112;2024-01-15T16:46:17;23.33;;;7.60;;
49828;SDS011;35723;51.194;5.112;2024-01-15T16:48:44;21.60;;;6.82;;
49828;SDS011;35723;51.194;5.112;2024-01-15T16:51:11;18.73;;;6.35;;
49828;SDS011;35723;51.194;5.112;2024-01-15T16:53:37;19.48;;;6.78;;
49828;SDS011;35723;51.194;5.112;2024-01-15T16:56:02;20.25;;;6.80;;
49828;SDS011;35723;51.194;5.112;2024-01-15T16:58:29;20.60;;;6.53;;
49828;SDS011;35723;51.194;5.112;2024-01-15T17:00:55;19.85;;;7.32;;
49828;SDS011;35723;51.194;5.112;2024-01-15T17:06:43;19.02;;;6.60;;
49828;SDS011;35723;51.194;5.112;2024-01-15T17:11:54;22.35;;;7.47;;
49828;SDS011;35723;51.194;5.112;2024-01-15T17:14:20;25.10;;;7.65;;
49828;SDS011;35723;51.194;5.112;2024-01-15T17:16:45;26.80;;;7.88;;
49828;SDS011;35723;51.194;5.112;2024-01-15T17:21:58;21.30;;;7.03;;
49828;SDS011;35723;51.194;5.112;2024-01-15T17:24:34;21.58;;;8.15;;
49828;SDS011;35723;51.194;5.112;2024-01-15T17:32:54;19.73;;;6.40;;
49828;SDS011;35723;51.194;5.112;2024-01-15T17:35:20;20.70;;;6.32;;
49828;SDS011;35723;51.194;5.112;2024-01-15T17:40:35;26.92;;;7.10;;
49828;SDS011;35723;51.194;5.112;2024-01-15T17:43:01;23.92;;;6.13;;
49828;SDS011;35723;51.194;5.112;2024-01-15T17:45:27;18.75;;;5.68;;
49828;SDS011;35723;51.194;5.112;2024-01-15T17:47:54;24.83;;;6.78;;
49828;SDS011;35723;51.194;5.112;2024-01-15T17:50:20;17.38;;;5.00;;
49828;SDS011;35723;51.194;5.112;2024-01-15T17:52:48;17.33;;;4.53;;
49828;SDS011;35723;51.194;5.112;2024-01-15T17:55:14;17.02;;;4.25;;
49828;SDS011;35723;51.194;5.112;2024-01-15T17:57:40;15.05;;;4.00;;
49828;SDS011;35723;51.194;5.112;2024-01-15T18:00:06;19.55;;;3.50;;
49828;SDS011;35723;51.194;5.112;2024-01-15T18:02:32;15.90;;;3.63;;
49828;SDS011;35723;51.194;5.112;2024-01-15T18:04:58;18.63;;;3.60;;
49828;SDS011;35723;51.194;5.112;2024-01-15T18:07:23;15.88;;;3.42;;
49828;SDS011;35723;51.194;5.112;2024-01-15T18:09:49;17.60;;;3.30;;
49828;SDS011;35723;51.194;5.112;2024-01-15T18:12:14;15.68;;;3.38;;
49828;SDS011;35723;51.194;5.112;2024-01-15T18:14:40;16.33;;;3.50;;
49828;SDS011;35723;51.194;5.112;2024-01-15T18:17:06;17.63;;;3.42;;
49828;SDS011;35723;51.194;5.112;2024-01-15T18:19:32;18.00;;;3.60;;